Time;durP1;ratioP1;P1;durP2;ratioP2;P2;SDS_P1;SDS_P2;PMS_P1;PMS_P2;Temp;Humidity;BMP_temperature;BMP_pressure;BME280_temperature;BME280_humidity;BME280_pressure;Samples;Min_cycle;Max_cycle;Signal;HPM_P1;HPM_P2
2022/01/25 00:15:13;;;;;;;16.88;11.93;;;;;;;;;;5032577;28;20508;-72
2022/01/25 00:31:17;;;;;;;18.05;11.52;;;;;;;;;;5045638;28;20364;-72
2022/01/25 00:33:52;;;;;;;16.63;11.57;;;;;;;;;;5027584;28;20479;-72
2022/01/25 00:36:21;;;;;;;36.83;20.50;;;;;;;;;;5018034;28;20036;-73
2022/01/25 00:38:48;;;;;;;28.10;17.35;;;;;;;;;;5047528;28;20032;-72
2022/01/25 00:41:15;;;;;;;21.60;14.88;;;;;;;;;;5041783;28;20028;-73
2022/01/25 00:43:41;;;;;;;21.50;13.70;;;;;;;;;;5038975;28;20537;-73
2022/01/25 00:46:10;;;;;;;21.02;13.85;;;;;;;;;;5048280;28;20020;-73
2022/01/25 00:54:02;;;;;;;16.38;12.50;;;;;;;;;;5038158;28;20036;-72
2022/01/25 00:56:33;;;;;;;16.13;12.43;;;;;;;;;;5048510;28;20037;-73
2022/01/25 00:59:00;;;;;;;15.10;11.95;;;;;;;;;;5038524;28;20536;-73
2022/01/25 01:01:27;;;;;;;15.50;12.07;;;;;;;;;;5041130;28;20032;-72
2022/01/25 01:03:53;;;;;;;15.90;11.23;;;;;;;;;;5045784;28;20530;-72
2022/01/25 01:06:20;;;;;;;16.00;12.20;;;;;;;;;;5034944;28;20082;-72
2022/01/25 01:08:46;;;;;;;19.00;13.73;;;;;;;;;;5046268;28;20060;-73
2022/01/25 01:11:18;;;;;;;21.20;13.73;;;;;;;;;;5022838;28;20506;-74
2022/01/25 01:33:23;;;;;;;22.67;14.80;;;;;;;;;;5003515;28;20091;-72
2022/01/25 01:41:32;;;;;;;18.55;13.07;;;;;;;;;;5044916;28;20037;-72
2022/01/25 01:44:00;;;;;;;17.65;12.02;;;;;;;;;;5022674;28;20045;-72
2022/01/25 01:47:01;;;;;;;18.88;13.35;;;;;;;;;;5051997;28;20021;-72
2022/01/25 01:49:16;;;;;;;29.17;17.77;;;;;;;;;;5046802;28;20406;-72
2022/01/25 01:51:44;;;;;;;27.80;15.20;;;;;;;;;;5048099;28;20025;-72
2022/01/25 01:54:12;;;;;;;21.05;13.35;;;;;;;;;;5019577;28;20364;-72
2022/01/25 01:56:39;;;;;;;18.92;12.60;;;;;;;;;;5050113;28;20570;-72
2022/01/25 01:59:08;;;;;;;23.20;14.75;;;;;;;;;;5042726;28;20033;-72
2022/01/25 02:01:36;;;;;;;22.02;14.85;;;;;;;;;;5043299;28;20022;-72
2022/01/25 02:04:04;;;;;;;22.30;13.80;;;;;;;;;;5032609;28;20025;-72
2022/01/25 02:06:30;;;;;;;18.60;12.63;;;;;;;;;;5038573;28;20036;-72
2022/01/25 02:08:56;;;;;;;24.08;14.63;;;;;;;;;;5048715;28;20075;-72
2022/01/25 02:11:24;;;;;;;20.35;13.48;;;;;;;;;;5027160;28;20028;-73
2022/01/25 02:13:51;;;;;;;20.02;13.32;;;;;;;;;;5040359;28;20026;-72
2022/01/25 02:24:32;;;;;;;23.40;15.15;;;;;;;;;;5051171;28;20106;-72
2022/01/25 02:26:59;;;;;;;26.58;16.48;;;;;;;;;;5041534;28;20029;-72
2022/01/25 02:29:25;;;;;;;26.75;15.85;;;;;;;;;;5044055;28;20029;-72
2022/01/25 02:31:53;;;;;;;18.60;13.05;;;;;;;;;;5048721;28;20447;-73
2022/01/25 02:34:19;;;;;;;22.30;13.88;;;;;;;;;;5037732;28;20087;-74
2022/01/25 02:36:45;;;;;;;26.45;15.88;;;;;;;;;;5049425;28;20025;-72
2022/01/25 02:39:11;;;;;;;25.50;15.95;;;;;;;;;;5042953;28;20358;-72
2022/01/25 02:41:37;;;;;;;21.20;13.25;;;;;;;;;;5042024;28;20034;-72
2022/01/25 02:44:07;;;;;;;19.55;12.40;;;;;;;;;;5049802;28;20483;-73
2022/01/25 02:49:01;;;;;;;22.70;15.05;;;;;;;;;;5033404;28;20029;-73
2022/01/25 02:51:29;;;;;;;25.40;14.93;;;;;;;;;;5041340;28;20083;-72
2022/01/25 02:53:55;;;;;;;25.20;15.20;;;;;;;;;;5048538;28;20025;-72
2022/01/25 02:56:22;;;;;;;17.95;12.10;;;;;;;;;;5037396;28;20499;-71
2022/01/25 02:58:48;;;;;;;22.42;13.98;;;;;;;;;;5048148;28;20398;-71
2022/01/25 03:01:14;;;;;;;19.95;13.85;;;;;;;;;;5043046;28;20510;-72
2022/01/25 03:03:40;;;;;;;23.52;14.23;;;;;;;;;;5023221;28;20187;-72
2022/01/25 03:06:06;;;;;;;19.95;12.93;;;;;;;;;;5050064;28;20040;-72
2022/01/25 03:08:32;;;;;;;17.05;11.50;;;;;;;;;;5037172;28;20394;-72
2022/01/25 03:10:58;;;;;;;20.58;12.18;;;;;;;;;;5028874;28;20025;-71
2022/01/25 03:13:31;;;;;;;17.33;10.85;;;;;;;;;;5044025;28;20083;-72
2022/01/25 03:16:03;;;;;;;17.67;11.45;;;;;;;;;;5039052;28;20034;-72
2022/01/25 03:21:03;;;;;;;25.45;14.13;;;;;;;;;;5040749;28;20041;-73
2022/01/25 03:23:31;;;;;;;18.48;12.23;;;;;;;;;;5042072;28;20033;-72
2022/01/25 03:25:57;;;;;;;24.15;13.63;;;;;;;;;;5048297;28;20074;-72
2022/01/25 03:28:23;;;;;;;16.90;11.77;;;;;;;;;;5036920;28;20470;-73
2022/01/25 03:30:50;;;;;;;18.20;12.02;;;;;;;;;;5047706;28;20056;-73
2022/01/25 03:33:17;;;;;;;20.25;12.77;;;;;;;;;;5043092;28;20375;-72
2022/01/25 03:35:43;;;;;;;21.48;13.05;;;;;;;;;;5040216;28;20109;-72
2022/01/25 03:38:10;;;;;;;21.88;13.02;;;;;;;;;;5031683;28;20462;-72
2022/01/25 03:40:36;;;;;;;22.20;13.13;;;;;;;;;;5019419;28;20455;-73
2022/01/25 03:43:05;;;;;;;19.48;12.05;;;;;;;;;;5045508;28;20060;-73
2022/01/25 03:45:33;;;;;;;19.60;11.70;;;;;;;;;;5044592;28;20017;-72
2022/01/25 03:50:39;;;;;;;15.75;9.75;;;;;;;;;;5037446;28;20865;-73
2022/01/25 03:53:06;;;;;;;15.70;9.85;;;;;;;;;;5045094;28;20052;-73
2022/01/25 03:55:32;;;;;;;23.65;13.23;;;;;;;;;;5043859;28;20013;-73
2022/01/25 03:57:58;;;;;;;17.67;11.23;;;;;;;;;;5019724;28;20100;-73
2022/01/25 04:00:24;;;;;;;19.45;11.40;;;;;;;;;;5030575;28;20062;-73
2022/01/25 04:02:55;;;;;;;15.68;9.30;;;;;;;;;;5038064;28;20029;-73
2022/01/25 04:05:33;;;;;;;17.52;11.82;;;;;;;;;;5025310;28;20082;-73
2022/01/25 04:07:59;;;;;;;18.30;10.50;;;;;;;;;;5029940;28;20025;-73
2022/01/25 04:10:25;;;;;;;17.27;10.80;;;;;;;;;;5035776;28;20401;-74
2022/01/25 04:12:50;;;;;;;21.27;12.40;;;;;;;;;;5046393;28;20446;-73
2022/01/25 04:15:17;;;;;;;15.70;9.30;;;;;;;;;;5041850;28;20021;-73
2022/01/25 04:17:51;;;;;;;16.60;10.30;;;;;;;;;;5039123;28;20395;-73
2022/01/25 04:20:26;;;;;;;14.25;8.63;;;;;;;;;;5048841;28;20032;-73
2022/01/25 04:25:43;;;;;;;17.17;10.70;;;;;;;;;;5074155;28;20035;-72
2022/01/25 04:28:09;;;;;;;17.70;10.30;;;;;;;;;;5072357;28;20028;-72
2022/01/25 04:30:35;;;;;;;20.30;12.40;;;;;;;;;;5086050;28;20433;-72
2022/01/25 04:33:04;;;;;;;14.77;8.70;;;;;;;;;;5076364;28;20508;-72
2022/01/25 04:49:10;;;;;;;14.82;9.40;;;;;;;;;;5056049;28;20040;-72
2022/01/25 05:02:08;;;;;;;15.30;9.80;;;;;;;;;;5053374;28;20029;-72
2022/01/25 05:04:40;;;;;;;14.57;9.43;;;;;;;;;;5035141;28;20028;-72
2022/01/25 05:07:19;;;;;;;20.23;10.02;;;;;;;;;;5060298;28;20475;-71
2022/01/25 05:09:46;;;;;;;15.15;9.77;;;;;;;;;;5061302;28;20022;-71
2022/01/25 05:12:13;;;;;;;18.52;11.02;;;;;;;;;;5051678;28;20022;-71
2022/01/25 05:14:56;;;;;;;17.83;10.75;;;;;;;;;;5063296;28;20446;-71
2022/01/25 05:17:31;;;;;;;17.38;10.43;;;;;;;;;;5040149;28;20047;-71
2022/01/25 05:22:42;;;;;;;14.93;10.10;;;;;;;;;;5037324;28;20028;-71
2022/01/25 05:25:08;;;;;;;19.08;10.82;;;;;;;;;;5059313;28;20082;-71
2022/01/25 05:27:34;;;;;;;16.55;11.30;;;;;;;;;;5059519;28;20028;-71
2022/01/25 05:30:00;;;;;;;17.60;10.65;;;;;;;;;;5052139;28;20029;-71
2022/01/25 05:32:27;;;;;;;19.90;12.23;;;;;;;;;;5061059;28;20104;-72
2022/01/25 05:34:53;;;;;;;19.88;11.77;;;;;;;;;;5040354;28;20048;-71
2022/01/25 05:37:19;;;;;;;21.30;13.05;;;;;;;;;;5044333;28;20037;-71
2022/01/25 05:39:47;;;;;;;23.45;13.10;;;;;;;;;;5047855;28;20028;-71
2022/01/25 05:47:14;;;;;;;21.00;13.13;;;;;;;;;;5042814;28;20116;-71
2022/01/25 05:49:43;;;;;;;28.13;16.92;;;;;;;;;;5041508;28;20028;-71
2022/01/25 05:52:10;;;;;;;24.77;14.73;;;;;;;;;;5050530;28;20557;-72
2022/01/25 05:54:37;;;;;;;28.73;14.93;;;;;;;;;;5037550;28;20386;-71
2022/01/25 05:57:03;;;;;;;25.55;14.52;;;;;;;;;;5046360;28;20033;-72
2022/01/25 05:59:29;;;;;;;26.30;14.82;;;;;;;;;;5045046;28;20116;-72
2022/01/25 06:01:55;;;;;;;27.25;14.88;;;;;;;;;;5039092;28;20456;-72
2022/01/25 06:04:22;;;;;;;22.63;14.60;;;;;;;;;;5050227;28;20021;-72
2022/01/25 06:06:48;;;;;;;23.30;13.65;;;;;;;;;;5039286;28;20048;-72
2022/01/25 06:09:14;;;;;;;21.98;12.43;;;;;;;;;;5044634;28;20491;-71
2022/01/25 06:11:40;;;;;;;22.55;13.52;;;;;;;;;;5028323;28;20025;-72
2022/01/25 06:14:06;;;;;;;26.38;14.02;;;;;;;;;;5037295;28;20029;-72
2022/01/25 06:16:32;;;;;;;25.38;13.52;;;;;;;;;;5049659;28;20171;-72
2022/01/25 06:18:59;;;;;;;26.05;14.57;;;;;;;;;;5022431;28;20083;-71
2022/01/25 06:21:25;;;;;;;26.15;14.00;;;;;;;;;;5038523;28;20025;-71
2022/01/25 06:23:51;;;;;;;22.65;12.13;;;;;;;;;;5047419;28;20017;-72
2022/01/25 06:26:18;;;;;;;25.02;13.10;;;;;;;;;;5019132;28;20087;-71
2022/01/25 06:28:44;;;;;;;25.30;13.68;;;;;;;;;;5037463;28;20545;-71
2022/01/25 06:31:10;;;;;;;23.05;12.43;;;;;;;;;;5044701;28;20033;-71
2022/01/25 06:33:42;;;;;;;25.42;13.10;;;;;;;;;;5045272;28;20025;-70
2022/01/25 06:36:08;;;;;;;27.77;15.00;;;;;;;;;;5036437;28;20387;-71
2022/01/25 06:38:37;;;;;;;23.80;12.60;;;;;;;;;;5019242;28;20104;-73
2022/01/25 06:41:03;;;;;;;22.30;12.25;;;;;;;;;;5031282;28;20440;-73
2022/01/25 06:43:29;;;;;;;20.92;11.63;;;;;;;;;;5022886;28;20080;-72
2022/01/25 06:45:59;;;;;;;24.38;12.95;;;;;;;;;;5046135;28;20108;-73
2022/01/25 06:48:25;;;;;;;24.73;12.82;;;;;;;;;;5035832;28;20021;-71
2022/01/25 06:50:51;;;;;;;20.05;11.13;;;;;;;;;;5040480;28;20029;-72
2022/01/25 06:53:17;;;;;;;21.05;11.93;;;;;;;;;;5024171;28;20025;-73
2022/01/25 06:55:43;;;;;;;19.92;12.13;;;;;;;;;;5039743;28;20036;-72
2022/01/25 06:58:09;;;;;;;21.40;12.20;;;;;;;;;;5049262;28;20079;-72
2022/01/25 07:00:35;;;;;;;23.33;11.48;;;;;;;;;;5036488;28;20418;-72
2022/01/25 07:03:01;;;;;;;21.85;12.40;;;;;;;;;;5045236;28;20029;-72
2022/01/25 07:05:27;;;;;;;23.98;12.10;;;;;;;;;;5043595;28;20590;-72
2022/01/25 07:07:53;;;;;;;22.30;12.93;;;;;;;;;;5038092;28;20025;-73
2022/01/25 07:10:20;;;;;;;25.73;12.70;;;;;;;;;;5031260;28;20060;-72
2022/01/25 07:12:46;;;;;;;22.58;12.25;;;;;;;;;;5019648;28;20017;-72
2022/01/25 07:15:13;;;;;;;21.42;12.73;;;;;;;;;;5043877;28;20035;-74
2022/01/25 07:17:39;;;;;;;26.80;13.63;;;;;;;;;;5044658;28;20032;-73
2022/01/25 07:20:06;;;;;;;24.83;13.52;;;;;;;;;;5036150;28;20025;-72
2022/01/25 07:22:33;;;;;;;22.38;12.90;;;;;;;;;;5043442;28;20112;-73
2022/01/25 07:24:59;;;;;;;23.45;12.95;;;;;;;;;;5035975;28;20022;-74
2022/01/25 07:27:25;;;;;;;32.08;16.65;;;;;;;;;;5042152;28;20399;-73
2022/01/25 07:29:51;;;;;;;25.92;15.82;;;;;;;;;;5038031;28;20029;-74
2022/01/25 07:32:17;;;;;;;24.02;14.23;;;;;;;;;;5030403;28;20036;-75
2022/01/25 07:34:43;;;;;;;45.88;23.38;;;;;;;;;;5037048;28;20021;-74
2022/01/25 07:37:09;;;;;;;42.67;20.35;;;;;;;;;;5043321;28;20563;-73
2022/01/25 07:39:35;;;;;;;30.35;16.77;;;;;;;;;;5025918;28;20056;-71
2022/01/25 07:42:01;;;;;;;50.88;22.60;;;;;;;;;;5036422;28;20033;-74
2022/01/25 07:44:31;;;;;;;26.58;14.98;;;;;;;;;;5030297;28;20087;-73
2022/01/25 07:46:58;;;;;;;46.45;22.52;;;;;;;;;;5034288;28;20041;-74
2022/01/25 07:49:24;;;;;;;62.45;26.00;;;;;;;;;;5040531;28;20018;-73
2022/01/25 07:51:51;;;;;;;106.07;38.47;;;;;;;;;;5042093;28;20040;-72
2022/01/25 07:54:17;;;;;;;66.55;28.27;;;;;;;;;;5032198;28;20083;-73
2022/01/25 07:56:43;;;;;;;30.27;15.40;;;;;;;;;;5031274;28;20025;-74
2022/01/25 07:59:09;;;;;;;25.65;14.57;;;;;;;;;;5039853;28;20037;-72
2022/01/25 08:01:35;;;;;;;32.15;17.58;;;;;;;;;;5039585;28;20026;-72
2022/01/25 08:04:01;;;;;;;26.85;16.08;;;;;;;;;;5046904;28;20021;-73
2022/01/25 08:06:27;;;;;;;36.60;19.15;;;;;;;;;;5034529;28;20105;-71
2022/01/25 08:08:53;;;;;;;22.33;14.05;;;;;;;;;;5045285;28;20029;-72
2022/01/25 08:11:19;;;;;;;37.30;18.88;;;;;;;;;;5041435;28;20494;-71
2022/01/25 08:13:50;;;;;;;31.83;17.48;;;;;;;;;;5020870;28;20053;-71
2022/01/25 08:16:16;;;;;;;21.83;12.07;;;;;;;;;;5049561;28;20036;-71
2022/01/25 08:18:42;;;;;;;31.88;17.65;;;;;;;;;;5019242;28;20266;-70
2022/01/25 08:21:08;;;;;;;32.03;17.70;;;;;;;;;;5043994;28;20155;-69
2022/01/25 08:23:34;;;;;;;39.38;20.55;;;;;;;;;;5044160;28;20053;-71
2022/01/25 08:26:01;;;;;;;24.35;15.02;;;;;;;;;;5037081;28;20025;-69
2022/01/25 08:28:27;;;;;;;42.95;21.88;;;;;;;;;;5048346;28;20108;-69
2022/01/25 08:30:53;;;;;;;31.20;16.58;;;;;;;;;;5037448;28;20051;-71
2022/01/25 08:33:19;;;;;;;76.65;37.00;;;;;;;;;;5041364;28;20061;-69
2022/01/25 08:35:45;;;;;;;41.83;22.08;;;;;;;;;;5044714;28;20021;-70
2022/01/25 08:38:11;;;;;;;28.02;16.50;;;;;;;;;;5034549;28;20029;-71
2022/01/25 08:40:37;;;;;;;33.28;18.63;;;;;;;;;;5047766;28;20013;-70
2022/01/25 08:43:04;;;;;;;46.63;24.58;;;;;;;;;;5042194;28;20053;-75
2022/01/25 08:45:30;;;;;;;56.50;27.13;;;;;;;;;;5024752;28;20462;-72
2022/01/25 08:47:56;;;;;;;42.80;22.67;;;;;;;;;;5013505;28;20049;-74
2022/01/25 08:50:23;;;;;;;45.33;22.95;;;;;;;;;;5037012;28;20052;-74
2022/01/25 08:52:49;;;;;;;29.27;17.42;;;;;;;;;;5046425;28;20033;-74
2022/01/25 08:55:15;;;;;;;38.13;19.92;;;;;;;;;;5040480;28;20025;-74
2022/01/25 08:57:41;;;;;;;39.30;19.42;;;;;;;;;;5038194;28;20030;-74
2022/01/25 09:00:11;;;;;;;33.17;17.92;;;;;;;;;;5029403;28;20127;-72
2022/01/25 09:02:37;;;;;;;47.85;23.70;;;;;;;;;;5019008;28;20017;-74
2022/01/25 09:05:03;;;;;;;38.58;20.35;;;;;;;;;;5025600;28;20116;-74
2022/01/25 09:07:29;;;;;;;43.88;22.83;;;;;;;;;;5035322;28;20034;-74
2022/01/25 09:09:55;;;;;;;29.45;17.77;;;;;;;;;;5025360;28;20024;-74
2022/01/25 09:12:22;;;;;;;34.72;19.35;;;;;;;;;;5046479;28;20025;-74
2022/01/25 09:14:48;;;;;;;50.75;25.95;;;;;;;;;;5047697;28;20033;-74
2022/01/25 09:17:14;;;;;;;39.95;21.23;;;;;;;;;;5029776;28;20459;-72
2022/01/25 09:19:41;;;;;;;39.05;20.10;;;;;;;;;;5045067;28;20502;-71
2022/01/25 09:22:07;;;;;;;49.90;24.55;;;;;;;;;;5044283;28;20510;-69
2022/01/25 09:24:33;;;;;;;57.58;28.65;;;;;;;;;;5047587;28;20101;-69
2022/01/25 09:26:59;;;;;;;31.38;18.73;;;;;;;;;;5047583;28;20116;-73
2022/01/25 09:29:25;;;;;;;90.13;42.05;;;;;;;;;;5047081;28;20079;-69
2022/01/25 09:31:51;;;;;;;46.17;24.52;;;;;;;;;;5026321;28;20037;-73
2022/01/25 09:34:19;;;;;;;30.45;18.40;;;;;;;;;;5045256;28;20059;-71
2022/01/25 09:36:45;;;;;;;47.72;22.45;;;;;;;;;;5047288;28;20088;-72
2022/01/25 09:39:11;;;;;;;65.07;32.03;;;;;;;;;;5029678;28;20059;-73
2022/01/25 09:41:37;;;;;;;40.88;22.05;;;;;;;;;;5045343;28;20020;-71
2022/01/25 09:44:03;;;;;;;53.60;26.25;;;;;;;;;;5043887;28;20391;-71
2022/01/25 09:46:29;;;;;;;40.17;21.58;;;;;;;;;;5046391;28;20059;-72
2022/01/25 09:48:55;;;;;;;58.22;30.02;;;;;;;;;;5047339;28;20052;-73
2022/01/25 09:51:22;;;;;;;31.00;18.80;;;;;;;;;;5052991;28;20029;-73
2022/01/25 09:53:48;;;;;;;39.70;22.70;;;;;;;;;;5037579;28;20037;-72
2022/01/25 09:56:14;;;;;;;39.63;21.83;;;;;;;;;;5044338;28;20025;-71
2022/01/25 09:58:42;;;;;;;37.50;20.35;;;;;;;;;;5047283;28;20025;-71
2022/01/25 10:01:08;;;;;;;49.33;26.65;;;;;;;;;;5047632;28;20048;-72
2022/01/25 10:03:39;;;;;;;54.40;27.75;;;;;;;;;;5045078;28;20021;-70
2022/01/25 10:06:05;;;;;;;;;;;;;;;;;;5037319;28;20017;-69
2022/01/25 10:08:35;;;;;;;52.05;25.20;;;;;;;;;;5039626;28;20378;-70
2022/01/25 10:11:02;;;;;;;63.58;31.25;;;;;;;;;;5044634;28;20025;-71
2022/01/25 10:13:29;;;;;;;42.65;22.23;;;;;;;;;;5052893;28;20047;-69
2022/01/25 10:16:03;;;;;;;50.20;25.20;;;;;;;;;;5052894;28;20091;-72
2022/01/25 10:18:44;;;;;;;31.73;18.75;;;;;;;;;;5034820;28;20147;-74
2022/01/25 10:21:16;;;;;;;39.60;22.13;;;;;;;;;;5053166;28;20024;-73
2022/01/25 10:23:58;;;;;;;27.63;16.08;;;;;;;;;;5040549;28;20014;-72
2022/01/25 10:26:24;;;;;;;27.92;16.95;;;;;;;;;;5036511;28;20083;-72
2022/01/25 10:28:51;;;;;;;33.80;18.85;;;;;;;;;;5044322;28;20021;-71
2022/01/25 10:31:17;;;;;;;67.00;30.95;;;;;;;;;;5025779;28;20033;-72
2022/01/25 10:33:52;;;;;;;58.55;27.08;;;;;;;;;;5028473;28;20120;-71
2022/01/25 10:36:19;;;;;;;62.60;30.98;;;;;;;;;;5036507;28;20025;-68
2022/01/25 10:38:47;;;;;;;94.43;42.72;;;;;;;;;;5040670;22;20045;-71
2022/01/25 10:41:15;;;;;;;29.50;17.73;;;;;;;;;;5023792;28;20488;-71
2022/01/25 10:43:43;;;;;;;35.13;16.85;;;;;;;;;;5024786;28;20514;-76
2022/01/25 10:46:23;;;;;;;28.85;15.02;;;;;;;;;;5017018;28;20022;-73
2022/01/25 10:48:50;;;;;;;26.27;14.73;;;;;;;;;;5027700;28;20026;-74
2022/01/25 10:51:18;;;;;;;28.63;15.85;;;;;;;;;;5012286;28;20030;-73
2022/01/25 10:53:44;;;;;;;27.27;14.85;;;;;;;;;;5026412;28;20096;-73
2022/01/25 10:56:10;;;;;;;56.55;25.83;;;;;;;;;;5017104;28;20448;-74
2022/01/25 10:58:38;;;;;;;119.85;41.95;;;;;;;;;;5028964;28;20400;-73
2022/01/25 11:01:04;;;;;;;33.25;15.35;;;;;;;;;;5020989;28;20108;-72
2022/01/25 11:03:30;;;;;;;43.92;21.33;;;;;;;;;;5023116;28;20017;-75
2022/01/25 11:05:57;;;;;;;124.15;47.50;;;;;;;;;;5028374;28;20028;-77
2022/01/25 11:08:24;;;;;;;33.83;16.70;;;;;;;;;;5016809;28;20030;-74
2022/01/25 11:10:56;;;;;;;78.20;33.63;;;;;;;;;;5031518;28;20029;-77
2022/01/25 11:15:54;;;;;;;41.78;17.92;;;;;;;;;;5027807;28;20029;-73
2022/01/25 11:18:20;;;;;;;62.08;26.65;;;;;;;;;;5017934;28;20072;-72
2022/01/25 11:20:47;;;;;;;39.35;17.88;;;;;;;;;;5029273;28;20037;-71
2022/01/25 11:23:13;;;;;;;39.88;18.63;;;;;;;;;;5023649;28;20501;-73
2022/01/25 11:25:41;;;;;;;56.28;24.88;;;;;;;;;;5020479;28;20030;-74
2022/01/25 11:28:07;;;;;;;91.55;36.53;;;;;;;;;;5028572;28;20049;-76
2022/01/25 11:30:33;;;;;;;56.20;24.65;;;;;;;;;;5015636;28;20395;-72
2022/01/25 11:32:59;;;;;;;59.47;26.23;;;;;;;;;;5024891;28;20479;-73
2022/01/25 11:35:27;;;;;;;51.65;21.77;;;;;;;;;;5023062;28;20479;-72
2022/01/25 11:37:56;;;;;;;42.42;19.02;;;;;;;;;;5016435;28;20077;-73
2022/01/25 11:40:25;;;;;;;32.83;15.70;;;;;;;;;;5027621;28;20589;-73
2022/01/25 11:42:53;;;;;;;87.25;34.80;;;;;;;;;;5018257;28;20291;-75
2022/01/25 11:45:23;;;;;;;33.33;16.90;;;;;;;;;;5023354;28;20022;-76
2022/01/25 11:47:50;;;;;;;35.83;16.98;;;;;;;;;;5028068;28;20075;-76
2022/01/25 11:50:16;;;;;;;46.67;21.30;;;;;;;;;;5016394;28;20411;-74
2022/01/25 11:52:50;;;;;;;115.30;47.47;;;;;;;;;;5027958;28;20026;-73
2022/01/25 11:55:25;;;;;;;90.32;38.00;;;;;;;;;;5021044;28;20502;-73
2022/01/25 11:57:54;;;;;;;31.88;14.90;;;;;;;;;;5015805;28;20030;-74
2022/01/25 12:00:21;;;;;;;60.95;27.38;;;;;;;;;;5012419;28;20026;-72
2022/01/25 12:02:51;;;;;;;53.20;23.10;;;;;;;;;;5024914;28;20529;-72
2022/01/25 12:05:24;;;;;;;30.73;15.15;;;;;;;;;;5020027;28;20053;-72
2022/01/25 12:08:11;;;;;;;60.00;26.58;;;;;;;;;;5016925;28;20468;-72
2022/01/25 12:10:40;;;;;;;38.03;18.48;;;;;;;;;;4998789;28;20025;-72
2022/01/25 12:13:12;;;;;;;50.72;22.38;;;;;;;;;;5022394;28;20384;-72
2022/01/25 12:15:38;;;;;;;27.05;14.98;;;;;;;;;;5022840;28;20410;-73
2022/01/25 12:18:04;;;;;;;64.07;27.20;;;;;;;;;;5014870;28;20113;-69
2022/01/25 12:20:30;;;;;;;39.13;18.73;;;;;;;;;;5026844;28;20028;-71
2022/01/25 12:23:06;;;;;;;33.17;15.00;;;;;;;;;;5016892;28;20471;-71
2022/01/25 12:25:47;;;;;;;42.50;20.60;;;;;;;;;;5018692;28;20109;-74
2022/01/25 12:28:24;;;;;;;50.08;22.50;;;;;;;;;;5026675;28;20028;-71
2022/01/25 12:30:50;;;;;;;38.40;20.52;;;;;;;;;;5016555;28;20333;-68
2022/01/25 12:33:16;;;;;;;56.95;25.52;;;;;;;;;;5020825;28;20488;-72
2022/01/25 12:36:03;;;;;;;35.30;17.27;;;;;;;;;;5023147;28;20077;-73
2022/01/25 12:38:32;;;;;;;33.05;17.08;;;;;;;;;;5013733;28;20036;-72
2022/01/25 12:41:01;;;;;;;31.63;16.17;;;;;;;;;;5022282;28;20388;-71
2022/01/25 12:43:29;;;;;;;60.95;27.38;;;;;;;;;;5022753;28;20022;-72
2022/01/25 12:45:57;;;;;;;40.78;21.48;;;;;;;;;;5019736;28;20022;-72
2022/01/25 12:48:28;;;;;;;68.82;30.17;;;;;;;;;;5031574;28;20014;-78
2022/01/25 12:50:55;;;;;;;59.15;28.02;;;;;;;;;;5026720;28;20022;-78
2022/01/25 12:53:23;;;;;;;32.97;16.85;;;;;;;;;;5026705;28;20022;-77
2022/01/25 12:55:51;;;;;;;35.17;18.02;;;;;;;;;;5013943;28;20034;-74
2022/01/25 12:58:19;;;;;;;35.17;18.88;;;;;;;;;;5029757;28;20021;-73
2022/01/25 13:00:46;;;;;;;106.03;48.90;;;;;;;;;;5020407;28;20045;-74
2022/01/25 13:03:13;;;;;;;66.10;31.25;;;;;;;;;;5026383;28;20022;-72
2022/01/25 13:05:43;;;;;;;35.95;18.83;;;;;;;;;;5027436;28;20372;-76
2022/01/25 13:08:17;;;;;;;55.00;25.20;;;;;;;;;;5018697;28;20037;-75
2022/01/25 13:10:43;;;;;;;60.35;28.15;;;;;;;;;;5032051;28;20018;-74
2022/01/25 13:13:23;;;;;;;33.58;17.30;;;;;;;;;;5023870;28;20121;-73
2022/01/25 13:18:15;;;;;;;46.75;20.25;;;;;;;;;;5033695;28;20029;-76
2022/01/25 13:20:44;;;;;;;36.53;18.60;;;;;;;;;;5014560;28;20243;-74
2022/01/25 13:23:12;;;;;;;75.53;34.05;;;;;;;;;;5023946;28;20018;-75
2022/01/25 13:25:55;;;;;;;99.13;45.25;;;;;;;;;;5035050;28;20499;-76
2022/01/25 13:28:51;;;;;;;37.58;18.00;;;;;;;;;;5018138;28;20025;-75
2022/01/25 13:31:21;;;;;;;36.50;17.58;;;;;;;;;;5023854;28;20033;-76
2022/01/25 13:33:47;;;;;;;66.45;29.08;;;;;;;;;;5012803;28;20229;-72
2022/01/25 13:36:15;;;;;;;42.00;19.38;;;;;;;;;;5013478;28;20376;-72
2022/01/25 13:38:41;;;;;;;39.45;18.92;;;;;;;;;;5013901;28;20034;-72
2022/01/25 13:41:19;;;;;;;40.25;18.95;;;;;;;;;;5014717;28;20030;-71
2022/01/25 13:46:25;;;;;;;64.63;30.27;;;;;;;;;;5013597;28;20026;-71
2022/01/25 13:48:53;;;;;;;38.05;19.25;;;;;;;;;;5013552;28;20029;-72
2022/01/25 13:51:20;;;;;;;93.05;40.65;;;;;;;;;;5013728;28;20480;-72
2022/01/25 13:53:51;;;;;;;39.42;18.90;;;;;;;;;;5013029;28;20040;-71
2022/01/25 13:56:18;;;;;;;40.33;20.42;;;;;;;;;;5012075;28;20384;-71
2022/01/25 13:58:47;;;;;;;68.45;29.00;;;;;;;;;;5013874;28;20506;-71
2022/01/25 14:01:15;;;;;;;66.85;28.95;;;;;;;;;;5014139;28;20053;-71
2022/01/25 14:03:46;;;;;;;46.65;21.90;;;;;;;;;;5014189;28;20468;-71
2022/01/25 14:06:22;;;;;;;44.58;21.20;;;;;;;;;;5014582;28;20030;-71
2022/01/25 14:08:48;;;;;;;43.03;20.35;;;;;;;;;;5014281;28;20030;-70
2022/01/25 14:11:19;;;;;;;39.60;17.83;;;;;;;;;;5014080;28;20028;-71
2022/01/25 14:24:35;;;;;;;42.17;21.02;;;;;;;;;;5014221;28;20373;-72
2022/01/25 14:27:18;;;;;;;40.25;20.58;;;;;;;;;;5014241;28;20088;-73
2022/01/25 14:29:44;;;;;;;43.03;19.65;;;;;;;;;;5014099;28;20361;-70
2022/01/25 14:32:10;;;;;;;48.13;22.73;;;;;;;;;;5014117;28;20024;-72
2022/01/25 14:34:36;;;;;;;36.55;17.55;;;;;;;;;;5014177;28;20034;-72
2022/01/25 14:37:02;;;;;;;56.47;25.70;;;;;;;;;;5014305;28;20026;-72
2022/01/25 14:39:28;;;;;;;51.60;23.80;;;;;;;;;;5015554;28;20034;-73
2022/01/25 14:41:55;;;;;;;43.20;20.92;;;;;;;;;;5017067;28;20053;-72
2022/01/25 14:44:24;;;;;;;47.67;21.90;;;;;;;;;;5017184;28;20026;-71
2022/01/25 14:46:52;;;;;;;58.92;28.33;;;;;;;;;;5017497;28;20040;-71
2022/01/25 14:49:21;;;;;;;42.53;20.23;;;;;;;;;;5016144;28;20116;-73
2022/01/25 14:51:48;;;;;;;52.70;24.70;;;;;;;;;;5013084;28;20036;-71
2022/01/25 14:54:18;;;;;;;47.15;22.83;;;;;;;;;;5014116;28;20037;-71
2022/01/25 14:56:50;;;;;;;62.72;29.10;;;;;;;;;;5014649;28;20034;-70
2022/01/25 14:59:28;;;;;;;51.17;21.60;;;;;;;;;;5014280;28;20025;-72
2022/01/25 15:02:00;;;;;;;51.38;24.50;;;;;;;;;;5013605;28;20022;-72
2022/01/25 15:04:27;;;;;;;45.42;21.63;;;;;;;;;;5012913;28;20033;-72
2022/01/25 15:06:53;;;;;;;56.45;27.27;;;;;;;;;;5012357;28;20093;-71
2022/01/25 15:09:19;;;;;;;53.72;25.42;;;;;;;;;;5012914;28;20429;-70
2022/01/25 15:11:46;;;;;;;44.65;21.90;;;;;;;;;;5011418;28;20383;-72
2022/01/25 15:14:20;;;;;;;54.92;26.63;;;;;;;;;;5012152;28;20061;-73
2022/01/25 15:16:47;;;;;;;53.67;25.23;;;;;;;;;;5013217;28;20026;-72
2022/01/25 15:19:18;;;;;;;50.72;22.45;;;;;;;;;;5012544;28;20026;-72
2022/01/25 15:21:45;;;;;;;51.38;24.67;;;;;;;;;;5014123;28;20052;-70
2022/01/25 15:24:10;;;;;;;49.50;23.20;;;;;;;;;;5013586;28;20033;-71
2022/01/25 15:26:37;;;;;;;49.30;23.30;;;;;;;;;;5008397;28;20041;-72
2022/01/25 15:29:06;;;;;;;41.45;19.70;;;;;;;;;;5013086;28;20157;-70
2022/01/25 15:31:32;;;;;;;35.33;17.70;;;;;;;;;;5021281;28;20664;-71
2022/01/25 15:33:57;;;;;;;42.05;21.00;;;;;;;;;;5012516;28;20033;-70
2022/01/25 15:36:23;;;;;;;60.53;25.80;;;;;;;;;;5010730;28;20034;-71
2022/01/25 15:38:51;;;;;;;44.15;19.75;;;;;;;;;;5013066;28;20029;-72
2022/01/25 15:41:17;;;;;;;45.28;21.17;;;;;;;;;;5010940;28;20084;-72
2022/01/25 15:43:51;;;;;;;54.83;24.42;;;;;;;;;;5013686;28;20018;-73
2022/01/25 15:46:27;;;;;;;55.58;24.63;;;;;;;;;;5012627;28;20032;-73
2022/01/25 15:48:54;;;;;;;55.40;23.52;;;;;;;;;;5014511;28;20524;-72
2022/01/25 15:51:20;;;;;;;56.25;23.05;;;;;;;;;;5017097;28;20030;-72
2022/01/25 15:53:46;;;;;;;54.28;24.70;;;;;;;;;;5016980;28;20025;-72
2022/01/25 15:56:14;;;;;;;64.70;28.20;;;;;;;;;;5017214;28;20037;-72
2022/01/25 15:58:40;;;;;;;50.25;22.10;;;;;;;;;;5017297;28;20030;-72
2022/01/25 16:01:08;;;;;;;44.72;19.27;;;;;;;;;;5018771;28;20030;-72
2022/01/25 16:03:34;;;;;;;49.60;22.00;;;;;;;;;;5020144;28;20026;-71
2022/01/25 16:06:00;;;;;;;43.47;19.95;;;;;;;;;;5016841;28;20480;-72
2022/01/25 16:08:26;;;;;;;44.92;20.63;;;;;;;;;;5016854;28;20022;-72
2022/01/25 16:10:52;;;;;;;39.05;18.63;;;;;;;;;;5016984;28;20082;-72
2022/01/25 16:13:18;;;;;;;50.55;22.90;;;;;;;;;;5018140;28;20022;-72
2022/01/25 16:15:44;;;;;;;45.88;19.90;;;;;;;;;;5017833;28;20061;-72
2022/01/25 16:18:10;;;;;;;48.10;22.13;;;;;;;;;;5021904;28;20030;-72
2022/01/25 16:20:36;;;;;;;46.28;20.45;;;;;;;;;;5022666;28;20035;-72
2022/01/25 16:23:05;;;;;;;61.35;25.35;;;;;;;;;;5023074;28;20026;-73
2022/01/25 16:25:31;;;;;;;44.00;20.38;;;;;;;;;;5023513;28;20105;-73
2022/01/25 16:27:57;;;;;;;43.78;19.83;;;;;;;;;;5023964;28;20033;-73
2022/01/25 16:30:23;;;;;;;42.28;19.92;;;;;;;;;;5016166;28;20026;-70